Aviation Digital Data Service (ADDS)

Output produced by METARs form (1258 UTC 15 July 2020)
found at http://www.aviationweather.gov/metar/data/
 
Forecast for: ESKN (SKAVSTA/STOCKHO , SE)
Text: TAF ESKN 151130Z 1512/1612 13012KT CAVOK
Forecast period: 1200 to 2100 UTC 15 July 2020
Forecast type: FROM: standard forecast or significant change
Winds: from the SE (130 degrees) at 14 MPH (12 knots; 6.2 m/s)
Visibility: 6 or more miles 10+ km)
Ceiling: unknown
Clouds: missing
Weather: NSW  (no significant weather)
Text: PROB40 1515/1519 SCT060CB
Forecast period: 1500 to 1900 UTC 15 July 2020
Forecast type: PROBABLE: 40 percent likelihood of the following during this time
Visibility: missing
Ceiling: at least 12,000 feet AGL
Clouds: scattered clouds at 6000 feet AGL
Weather: no significant weather forecast for this period
Text: BECMG 1521/1523 07003KT
Forecast period: 2100 UTC 15 July 2020 to 1200 UTC 16 July 2020
Forecast type: BECOMING: Conditions expected to become as follows by 2300 UTC 15 July 2020
Winds: from the ENE (70 degrees) at 3 MPH (3 knots; 1.5 m/s)
Visibility: 6 or more miles 10+ km)
Ceiling: unknown
Clouds: missing
Weather: NSW  (no significant weather)
Text: PROB40 1521/1604 2000 BR
Forecast period: 2100 UTC 15 July 2020 to 0400 UTC 16 July 2020
Forecast type: PROBABLE: 40 percent likelihood of the following during this time
Visibility: 1.24 miles (2.00 km)
Ceiling: unknown
Clouds: missing
Weather: BR  (mist)